Time;durP1;ratioP1;P1;durP2;ratioP2;P2;SDS_P1;SDS_P2;PMS_P1;PMS_P2;Temp;Humidity;BMP_temperature;BMP_pressure;BME280_temperature;BME280_humidity;BME280_pressure;Samples;Min_cycle;Max_cycle;Signal;HPM_P1;HPM_P2
2023/08/30 00:00:21;;;;;;;5.95;5.35;;;16.60;75.60;;;;;;5081464;28;20090;-93
2023/08/30 00:02:47;;;;;;;5.35;4.85;;;16.60;75.80;;;;;;5087925;28;20044;-95
2023/08/30 00:05:13;;;;;;;5.88;5.00;;;16.60;75.90;;;;;;5101697;28;20024;-94
2023/08/30 00:07:40;;;;;;;7.53;5.30;;;16.50;76.00;;;;;;5103488;28;20061;-94
2023/08/30 00:10:10;;;;;;;6.85;5.10;;;16.60;75.90;;;;;;5105573;28;20052;-95
2023/08/30 00:12:36;;;;;;;6.03;5.43;;;16.60;76.00;;;;;;5104997;28;20027;-94
2023/08/30 00:15:02;;;;;;;6.72;4.78;;;16.60;76.00;;;;;;5087318;28;20119;-95
2023/08/30 00:17:28;;;;;;;7.65;5.80;;;16.60;75.80;;;;;;5090168;28;20091;-94
2023/08/30 00:19:55;;;;;;;6.38;4.80;;;16.60;75.80;;;;;;5087764;28;20050;-94
2023/08/30 00:22:22;;;;;;;6.50;5.13;;;16.60;76.00;;;;;;5081157;28;20036;-95
2023/08/30 00:24:48;;;;;;;5.35;4.72;;;16.60;76.10;;;;;;5089788;28;20096;-94
2023/08/30 00:27:13;;;;;;;10.35;5.15;;;16.60;75.90;;;;;;5086392;28;20478;-94
2023/08/30 00:29:39;;;;;;;6.65;5.22;;;16.60;75.90;;;;;;5083824;28;20034;-94
2023/08/30 00:32:05;;;;;;;7.72;5.30;;;16.60;75.80;;;;;;5087944;28;20390;-94
2023/08/30 00:34:31;;;;;;;6.78;5.47;;;16.60;75.60;;;;;;5026932;28;1377530;-94
2023/08/30 00:36:57;;;;;;;8.45;5.38;;;16.60;75.60;;;;;;5081617;28;20020;-96
2023/08/30 00:39:23;;;;;;;6.35;4.93;;;16.60;75.60;;;;;;5085563;28;20036;-94
2023/08/30 00:41:48;;;;;;;6.10;5.50;;;16.60;75.80;;;;;;5090036;28;20627;-94
2023/08/30 00:44:14;;;;;;;5.90;5.10;;;16.60;75.80;;;;;;5086316;28;20023;-95
2023/08/30 00:46:41;;;;;;;8.45;5.10;;;16.60;75.80;;;;;;5090568;28;20027;-95
2023/08/30 00:49:07;;;;;;;5.78;5.18;;;16.50;75.70;;;;;;5084745;28;20159;-94
2023/08/30 00:51:33;;;;;;;5.88;5.28;;;16.50;75.40;;;;;;5084563;28;20503;-94
2023/08/30 00:54:02;;;;;;;5.95;5.00;;;16.50;75.40;;;;;;5089657;28;20569;-94
2023/08/30 00:56:28;;;;;;;5.72;5.15;;;16.50;75.60;;;;;;5090563;28;20451;-94
2023/08/30 00:58:55;;;;;;;6.88;5.07;;;16.50;75.60;;;;;;5083274;28;20471;-95
2023/08/30 01:01:21;;;;;;;6.65;5.43;;;16.40;75.40;;;;;;5082865;28;20071;-94
2023/08/30 01:03:47;;;;;;;5.50;4.90;;;16.60;75.60;;;;;;5084458;28;20024;-94
2023/08/30 01:06:13;;;;;;;5.50;4.63;;;16.40;75.60;;;;;;5090951;28;20038;-96
2023/08/30 01:08:41;;;;;;;5.95;4.55;;;16.40;75.90;;;;;;5085601;28;20027;-94
2023/08/30 01:11:29;;;;;;;5.15;4.65;;;16.30;76.10;;;;;;5078929;28;20497;-95
2023/08/30 01:14:18;;;;;;;5.50;5.00;;;16.30;76.30;;;;;;5084293;28;20059;-95
2023/08/30 01:16:44;;;;;;;5.30;4.35;;;16.30;76.10;;;;;;5083599;28;20027;-94
2023/08/30 01:19:49;;;;;;;5.10;4.63;;;16.30;75.70;;;;;;5084311;28;20443;-93
2023/08/30 01:22:38;;;;;;;4.97;4.13;;;16.30;76.10;;;;;;5066176;28;20040;-95
2023/08/30 01:25:34;;;;;;;5.90;4.88;;;16.40;76.00;;;;;;5082776;28;20077;-95
2023/08/30 01:28:05;;;;;;;4.50;4.10;;;16.20;76.10;;;;;;5083746;28;20502;-94
2023/08/30 01:30:33;;;;;;;4.65;4.10;;;16.30;75.90;;;;;;5081710;28;20059;-95
2023/08/30 01:33:02;;;;;;;5.20;4.53;;;16.30;75.90;;;;;;5084290;28;20047;-94
2023/08/30 01:35:32;;;;;;;6.80;4.35;;;16.30;76.00;;;;;;5086110;28;20034;-94
2023/08/30 01:38:00;;;;;;;4.10;3.70;;;16.30;76.10;;;;;;5092440;28;20429;-94
2023/08/30 01:40:28;;;;;;;5.72;4.10;;;16.30;76.20;;;;;;5084546;28;20046;-94
2023/08/30 01:42:54;;;;;;;4.55;4.15;;;16.30;76.10;;;;;;5089484;28;20054;-95
2023/08/30 01:45:23;;;;;;;4.35;3.95;;;16.30;75.80;;;;;;5089796;28;20020;-94
2023/08/30 01:47:49;;;;;;;5.07;3.85;;;16.20;75.80;;;;;;5086989;28;20466;-94
2023/08/30 01:50:16;;;;;;;4.80;4.30;;;16.30;75.90;;;;;;5088837;28;20588;-94
2023/08/30 01:52:42;;;;;;;4.82;4.03;;;16.40;75.60;;;;;;5091093;28;20536;-95
2023/08/30 01:55:10;;;;;;;4.05;3.65;;;16.30;75.80;;;;;;5087653;28;20124;-93
2023/08/30 01:57:36;;;;;;;5.05;4.38;;;16.20;75.70;;;;;;5083749;28;20455;-94
2023/08/30 02:00:02;;;;;;;4.63;4.22;;;16.30;75.60;;;;;;5069399;28;20040;-94
2023/08/30 02:02:31;;;;;;;5.68;4.50;;;16.30;75.80;;;;;;5091986;27;20023;-94
2023/08/30 02:04:57;;;;;;;4.97;4.15;;;16.30;75.90;;;;;;5079029;28;20099;-94
2023/08/30 02:07:41;;;;;;;4.72;4.25;;;16.30;75.70;;;;;;5093116;28;20047;-94
2023/08/30 02:10:11;;;;;;;4.88;4.40;;;16.30;76.00;;;;;;5090220;28;20038;-93
2023/08/30 02:12:46;;;;;;;5.72;4.40;;;16.30;75.80;;;;;;5089105;28;20115;-93
2023/08/30 02:15:13;;;;;;;5.10;4.63;;;16.30;75.90;;;;;;5089189;28;20023;-95
2023/08/30 02:17:39;;;;;;;9.27;4.93;;;16.20;75.70;;;;;;5087984;28;20113;-94
2023/08/30 02:20:09;;;;;;;5.38;4.72;;;16.20;75.60;;;;;;5091145;28;20063;-94
2023/08/30 02:22:35;;;;;;;6.20;4.70;;;16.20;75.90;;;;;;5088734;28;20087;-94
2023/08/30 02:25:04;;;;;;;4.80;4.30;;;16.20;75.70;;;;;;5083727;28;20419;-94
2023/08/30 02:27:31;;;;;;;4.75;4.28;;;16.20;76.00;;;;;;5085646;28;20024;-94
2023/08/30 02:29:57;;;;;;;7.38;4.95;;;16.20;76.00;;;;;;5091461;28;20052;-95
2023/08/30 02:32:23;;;;;;;5.03;4.53;;;16.20;75.80;;;;;;5087516;28;20031;-95
2023/08/30 02:34:52;;;;;;;7.05;4.78;;;16.20;76.00;;;;;;5089571;28;20076;-94
2023/08/30 02:37:18;;;;;;;5.38;4.88;;;16.20;76.20;;;;;;5090490;28;20020;-96
2023/08/30 02:39:44;;;;;;;4.78;4.38;;;16.20;76.20;;;;;;5087393;28;20035;-95
2023/08/30 02:42:10;;;;;;;10.93;4.53;;;16.20;76.10;;;;;;5083922;28;20038;-96
2023/08/30 02:44:36;;;;;;;7.32;4.32;;;16.30;76.10;;;;;;5088474;28;20544;-93
2023/08/30 02:47:02;;;;;;;5.70;4.32;;;16.20;76.20;;;;;;5090175;28;20028;-93
2023/08/30 02:49:28;;;;;;;4.68;4.28;;;16.20;76.00;;;;;;5088001;28;20063;-94
2023/08/30 02:51:54;;;;;;;5.25;4.75;;;16.30;76.10;;;;;;5093121;28;20054;-94
2023/08/30 02:54:20;;;;;;;5.00;4.50;;;16.20;75.90;;;;;;5089583;28;20467;-94
2023/08/30 02:56:45;;;;;;;8.60;4.47;;;16.20;76.00;;;;;;5086237;28;20053;-92
2023/08/30 02:59:12;;;;;;;5.07;4.60;;;16.20;76.00;;;;;;5080864;28;20020;-93
2023/08/30 03:01:38;;;;;;;5.35;4.90;;;16.20;76.00;;;;;;5087791;28;20062;-95
2023/08/30 03:04:08;;;;;;;6.22;4.80;;;16.20;75.90;;;;;;5091395;28;20042;-94
2023/08/30 03:06:34;;;;;;;5.40;4.90;;;16.20;76.30;;;;;;5082378;28;20028;-93
2023/08/30 03:09:01;;;;;;;5.35;4.85;;;16.20;76.30;;;;;;5091246;28;20114;-94
2023/08/30 03:11:27;;;;;;;5.18;4.45;;;16.20;76.30;;;;;;5077827;28;20111;-96
2023/08/30 03:13:56;;;;;;;7.20;5.05;;;16.20;76.30;;;;;;5091642;28;20108;-94
2023/08/30 03:16:22;;;;;;;6.63;4.75;;;16.20;76.40;;;;;;5086256;28;20071;-94
2023/08/30 03:18:48;;;;;;;9.63;4.68;;;16.20;76.30;;;;;;5087622;28;20108;-94
2023/08/30 03:21:14;;;;;;;8.35;5.05;;;16.20;76.40;;;;;;5086078;28;20130;-94
2023/08/30 03:23:42;;;;;;;8.07;5.45;;;16.20;76.40;;;;;;5084742;28;20020;-94
2023/08/30 03:26:15;;;;;;;5.43;4.85;;;16.20;76.30;;;;;;5080558;28;20043;-95
2023/08/30 03:28:43;;;;;;;9.60;5.70;;;16.20;76.50;;;;;;5087755;28;20039;-93
2023/08/30 03:31:16;;;;;;;5.90;5.32;;;16.20;76.40;;;;;;5085653;28;20039;-94
2023/08/30 03:33:42;;;;;;;7.30;4.65;;;16.10;76.50;;;;;;5097749;28;20052;-94
2023/08/30 03:36:14;;;;;;;7.68;5.75;;;16.10;76.40;;;;;;5076355;28;20037;-94
2023/08/30 03:38:39;;;;;;;6.13;5.22;;;16.10;76.40;;;;;;5082557;28;20031;-93
2023/08/30 03:41:05;;;;;;;5.40;4.90;;;16.10;76.10;;;;;;5079410;28;20053;-95
2023/08/30 03:43:32;;;;;;;6.57;5.10;;;16.10;76.30;;;;;;5086128;28;20023;-93
2023/08/30 03:46:02;;;;;;;7.68;5.15;;;16.00;76.30;;;;;;5082792;28;20055;-94
2023/08/30 03:48:29;;;;;;;7.00;5.35;;;16.00;76.40;;;;;;5087100;28;20043;-94
2023/08/30 03:50:55;;;;;;;8.63;5.30;;;16.00;76.50;;;;;;5084543;28;20123;-93
2023/08/30 03:53:21;;;;;;;14.27;5.70;;;16.00;76.60;;;;;;5081739;28;20020;-93
2023/08/30 03:55:47;;;;;;;5.85;5.25;;;16.00;76.60;;;;;;5085049;28;20165;-94
2023/08/30 03:58:13;;;;;;;6.88;5.32;;;16.00;76.40;;;;;;5083982;28;20060;-94
2023/08/30 04:00:39;;;;;;;5.35;4.85;;;16.00;76.50;;;;;;5085886;28;20038;-92
2023/08/30 04:03:08;;;;;;;6.60;5.63;;;15.80;76.60;;;;;;5089001;28;20024;-94
2023/08/30 04:05:35;;;;;;;8.27;5.07;;;15.90;76.90;;;;;;5083645;28;20023;-94
2023/08/30 04:08:05;;;;;;;7.18;5.50;;;16.00;76.80;;;;;;5087243;28;20029;-95
2023/08/30 04:10:38;;;;;;;5.88;5.32;;;15.90;76.70;;;;;;5085751;28;20028;-95
2023/08/30 04:13:05;;;;;;;7.30;5.30;;;15.90;76.90;;;;;;5073981;28;20060;-95
2023/08/30 04:15:38;;;;;;;8.10;5.13;;;15.80;76.60;;;;;;5088035;28;20716;-94
2023/08/30 04:18:05;;;;;;;5.53;5.05;;;16.00;76.90;;;;;;5085900;28;20478;-94
2023/08/30 04:20:32;;;;;;;5.75;5.25;;;16.00;76.60;;;;;;5082809;28;20055;-95
2023/08/30 04:23:01;;;;;;;6.15;5.38;;;15.90;76.50;;;;;;5081232;28;20032;-93
2023/08/30 04:25:27;;;;;;;6.05;5.45;;;15.90;76.50;;;;;;5084379;28;20028;-94
2023/08/30 04:27:53;;;;;;;5.78;5.18;;;15.90;76.60;;;;;;5085070;28;20020;-94
2023/08/30 04:30:19;;;;;;;6.18;5.18;;;15.90;76.30;;;;;;5088029;28;20028;-93
2023/08/30 04:32:45;;;;;;;5.93;5.38;;;15.90;76.40;;;;;;5087510;28;20040;-94
2023/08/30 04:35:11;;;;;;;7.28;5.13;;;15.90;76.50;;;;;;5092023;28;20051;-93
2023/08/30 04:37:38;;;;;;;7.07;4.80;;;15.90;76.60;;;;;;5088345;28;20031;-91
2023/08/30 04:40:05;;;;;;;5.28;4.78;;;15.90;76.70;;;;;;5088567;28;20047;-95
2023/08/30 04:42:31;;;;;;;4.85;4.38;;;16.10;76.80;;;;;;5083053;28;20027;-96
2023/08/30 04:45:00;;;;;;;10.88;4.50;;;15.90;76.50;;;;;;5085761;28;20144;-93
2023/08/30 04:47:28;;;;;;;5.93;4.40;;;15.90;76.70;;;;;;5086928;28;20027;-95
2023/08/30 04:49:53;;;;;;;4.63;4.22;;;15.90;76.80;;;;;;5083295;28;20062;-93
2023/08/30 04:52:19;;;;;;;5.50;4.60;;;15.90;76.60;;;;;;5088370;28;20027;-94
2023/08/30 04:54:45;;;;;;;5.43;4.93;;;15.90;76.50;;;;;;5078759;28;20039;-94
2023/08/30 04:57:14;;;;;;;6.95;5.57;;;15.90;76.40;;;;;;5086304;28;20503;-93
2023/08/30 04:59:43;;;;;;;5.55;4.60;;;15.90;76.50;;;;;;5087912;28;20089;-94
2023/08/30 05:02:09;;;;;;;5.68;5.00;;;15.90;76.60;;;;;;5083159;28;20059;-94
2023/08/30 05:04:34;;;;;;;8.93;5.03;;;15.90;76.40;;;;;;5079188;28;20118;-94
2023/08/30 05:07:00;;;;;;;5.57;5.07;;;15.90;76.40;;;;;;5080124;28;20032;-92
2023/08/30 05:09:27;;;;;;;6.32;5.20;;;15.90;76.50;;;;;;5089678;28;20027;-94
2023/08/30 05:11:53;;;;;;;11.32;5.90;;;15.90;76.50;;;;;;5080539;28;20036;-95
2023/08/30 05:14:20;;;;;;;6.80;5.28;;;15.90;76.50;;;;;;5081764;28;20032;-94
2023/08/30 05:16:46;;;;;;;5.78;5.28;;;15.90;76.60;;;;;;5085738;28;20424;-93
2023/08/30 05:19:12;;;;;;;6.25;5.43;;;15.90;76.40;;;;;;5089929;28;20126;-93
2023/08/30 05:21:37;;;;;;;6.47;5.25;;;15.90;76.40;;;;;;5087831;28;20111;-94
2023/08/30 05:24:07;;;;;;;6.78;5.35;;;15.90;76.30;;;;;;5093414;28;20035;-95
2023/08/30 05:26:32;;;;;;;4.95;4.53;;;15.90;76.50;;;;;;5091541;28;20023;-94
2023/08/30 05:28:58;;;;;;;5.28;4.78;;;15.90;76.30;;;;;;5090461;28;20029;-94
2023/08/30 05:31:24;;;;;;;6.82;5.20;;;15.90;76.30;;;;;;5092468;28;20023;-94
2023/08/30 05:33:50;;;;;;;5.70;5.03;;;15.90;76.30;;;;;;5084419;28;20052;-94
2023/08/30 05:36:17;;;;;;;5.65;5.15;;;15.90;76.40;;;;;;5080110;28;20029;-94
2023/08/30 05:38:43;;;;;;;5.47;4.95;;;15.90;76.30;;;;;;5081507;28;20035;-94
2023/08/30 05:41:09;;;;;;;6.60;5.15;;;15.90;76.30;;;;;;5079064;28;20032;-94
2023/08/30 05:43:35;;;;;;;7.15;5.18;;;15.90;76.30;;;;;;5079041;28;20435;-95
2023/08/30 05:46:03;;;;;;;5.90;5.38;;;16.00;76.40;;;;;;5087421;28;20121;-93
2023/08/30 05:48:29;;;;;;;6.07;5.43;;;16.00;76.60;;;;;;5077516;28;20029;-93
2023/08/30 05:50:55;;;;;;;5.68;5.18;;;16.00;76.70;;;;;;5082461;28;20490;-93
2023/08/30 05:53:21;;;;;;;6.75;5.07;;;16.10;76.60;;;;;;5089219;28;20028;-94
2023/08/30 05:55:47;;;;;;;5.72;5.13;;;16.10;76.50;;;;;;5084440;28;20039;-93
2023/08/30 05:58:15;;;;;;;6.03;5.43;;;16.20;76.70;;;;;;5079218;28;20043;-94
2023/08/30 06:00:40;;;;;;;6.25;4.93;;;16.20;76.50;;;;;;5076546;28;20032;-94
2023/08/30 06:03:06;;;;;;;9.30;5.05;;;16.20;76.40;;;;;;5084498;28;20028;-96
2023/08/30 06:05:33;;;;;;;6.38;4.88;;;16.30;76.30;;;;;;5091309;28;20024;-94
2023/08/30 06:07:58;;;;;;;5.47;4.95;;;16.30;76.30;;;;;;5086787;28;20024;-93
2023/08/30 06:10:24;;;;;;;5.55;5.05;;;16.40;76.10;;;;;;5086617;28;20028;-93
2023/08/30 06:12:50;;;;;;;4.63;4.22;;;16.40;76.00;;;;;;5080306;28;20032;-95
2023/08/30 06:15:16;;;;;;;5.40;4.85;;;16.50;75.90;;;;;;5089900;28;20020;-94
2023/08/30 06:17:42;;;;;;;5.95;4.68;;;16.50;75.90;;;;;;5087344;28;20058;-94
2023/08/30 06:20:08;;;;;;;5.03;4.53;;;16.50;76.00;;;;;;5081428;28;20042;-95
2023/08/30 06:22:33;;;;;;;8.55;5.20;;;16.60;76.10;;;;;;5080644;28;20028;-93
2023/08/30 06:24:59;;;;;;;5.85;4.90;;;16.60;75.80;;;;;;5078349;28;20518;-93
2023/08/30 06:27:25;;;;;;;5.75;4.25;;;16.60;75.80;;;;;;5086363;28;20024;-93
2023/08/30 06:29:51;;;;;;;8.88;5.47;;;16.70;75.40;;;;;;5083026;28;20028;-93
2023/08/30 06:32:17;;;;;;;5.30;4.80;;;16.70;75.10;;;;;;5086530;28;20059;-94
2023/08/30 06:34:43;;;;;;;7.70;5.00;;;16.70;74.80;;;;;;5086647;28;20076;-94
2023/08/30 06:37:09;;;;;;;5.75;4.22;;;16.70;74.90;;;;;;5106962;28;20023;-93
2023/08/30 06:39:36;;;;;;;5.47;4.82;;;16.70;75.00;;;;;;5085007;28;20134;-95
2023/08/30 06:42:05;;;;;;;7.40;4.32;;;16.70;74.80;;;;;;5090559;28;20032;-93
2023/08/30 06:44:31;;;;;;;5.05;4.65;;;16.80;74.90;;;;;;5083634;28;20060;-94
2023/08/30 06:46:57;;;;;;;5.28;4.78;;;16.80;74.60;;;;;;5092313;28;20375;-93
2023/08/30 06:49:23;;;;;;;5.32;4.82;;;16.80;74.50;;;;;;5088736;28;20028;-93
2023/08/30 06:51:49;;;;;;;6.80;4.80;;;16.90;74.70;;;;;;5087545;28;20475;-92
2023/08/30 06:54:15;;;;;;;4.47;4.07;;;16.90;74.50;;;;;;5093823;28;20031;-92
2023/08/30 06:56:56;;;;;;;5.03;4.53;;;16.90;74.40;;;;;;5089867;28;20024;-94
2023/08/30 06:59:22;;;;;;;6.63;4.75;;;16.90;74.80;;;;;;5090312;28;20020;-92
2023/08/30 07:01:47;;;;;;;4.65;4.25;;;17.00;74.80;;;;;;5088255;28;20038;-94
2023/08/30 07:04:13;;;;;;;4.82;3.95;;;17.00;74.70;;;;;;5083194;28;20032;-93
2023/08/30 07:06:39;;;;;;;4.82;4.32;;;17.10;74.60;;;;;;5087103;28;20043;-95
2023/08/30 07:09:06;;;;;;;5.35;4.75;;;17.20;74.70;;;;;;5086837;28;20097;-93
2023/08/30 07:11:32;;;;;;;5.30;4.80;;;17.20;74.90;;;;;;5086545;28;20028;-93
2023/08/30 07:13:58;;;;;;;6.28;4.65;;;17.30;74.90;;;;;;5085487;28;20034;-93
2023/08/30 07:16:23;;;;;;;4.38;3.85;;;17.40;74.80;;;;;;5087432;28;20020;-95
2023/08/30 07:18:50;;;;;;;4.65;4.13;;;17.40;74.50;;;;;;5085447;28;20069;-94
2023/08/30 07:21:15;;;;;;;4.82;4.32;;;17.50;74.40;;;;;;5085102;28;20040;-93
2023/08/30 07:23:41;;;;;;;4.60;4.20;;;17.60;75.00;;;;;;5089039;28;20031;-93
2023/08/30 07:26:07;;;;;;;5.88;4.25;;;17.60;74.20;;;;;;5085343;28;20054;-92
2023/08/30 07:28:33;;;;;;;4.45;4.05;;;17.70;74.20;;;;;;5086071;28;20031;-93
2023/08/30 07:31:05;;;;;;;4.38;3.97;;;17.70;74.00;;;;;;5089648;28;20039;-94
2023/08/30 07:33:31;;;;;;;6.57;4.32;;;17.80;73.30;;;;;;5075809;28;20048;-92
2023/08/30 07:35:56;;;;;;;4.53;3.88;;;17.80;73.20;;;;;;5069099;28;20028;-92
2023/08/30 07:38:22;;;;;;;5.82;3.55;;;17.80;73.20;;;;;;5058259;28;20043;-92
2023/08/30 07:40:48;;;;;;;4.32;3.92;;;17.90;73.40;;;;;;5068968;28;20047;-92
2023/08/30 07:43:14;;;;;;;6.55;3.20;;;17.90;73.20;;;;;;5069605;28;20047;-94
2023/08/30 07:45:39;;;;;;;4.40;4.00;;;17.90;73.40;;;;;;5067744;28;20020;-93
2023/08/30 07:48:05;;;;;;;4.63;4.13;;;18.00;73.40;;;;;;5065643;28;20047;-93
2023/08/30 07:50:31;;;;;;;4.72;4.32;;;18.00;73.30;;;;;;5067372;28;20453;-93
2023/08/30 07:52:57;;;;;;;5.88;4.13;;;18.00;73.10;;;;;;5059572;28;20050;-93
2023/08/30 07:55:22;;;;;;;4.30;4.00;;;18.00;72.90;;;;;;5067060;28;20161;-93
2023/08/30 07:57:48;;;;;;;4.97;4.20;;;18.00;72.60;;;;;;5067384;28;20039;-93
2023/08/30 08:00:14;;;;;;;7.72;4.80;;;17.90;72.50;;;;;;5062958;28;20557;-93
2023/08/30 08:02:41;;;;;;;5.38;4.45;;;17.90;72.70;;;;;;5073027;28;20032;-94
2023/08/30 08:05:07;;;;;;;4.97;4.47;;;17.80;72.50;;;;;;5065784;28;20024;-94
2023/08/30 08:07:33;;;;;;;4.75;4.35;;;18.00;72.90;;;;;;5065607;28;20028;-94
2023/08/30 08:09:59;;;;;;;7.68;4.68;;;18.00;73.00;;;;;;5069523;28;20544;-93
2023/08/30 08:12:26;;;;;;;4.80;4.30;;;18.10;73.40;;;;;;5069369;28;20044;-94
2023/08/30 08:14:52;;;;;;;5.78;4.43;;;18.20;73.70;;;;;;5069866;28;20123;-95
2023/08/30 08:17:17;;;;;;;4.40;3.88;;;18.40;73.90;;;;;;5069446;28;20052;-93
2023/08/30 08:19:43;;;;;;;4.38;3.80;;;18.60;73.70;;;;;;5067747;28;20029;-92
2023/08/30 08:22:09;;;;;;;5.53;3.13;;;18.80;73.30;;;;;;5068661;28;20143;-93
2023/08/30 08:24:35;;;;;;;4.45;3.60;;;19.00;72.70;;;;;;5068482;28;20036;-93
2023/08/30 08:27:01;;;;;;;4.97;3.47;;;19.20;72.10;;;;;;5060358;28;20036;-94
2023/08/30 08:29:28;;;;;;;7.53;4.82;;;19.40;72.10;;;;;;5060670;28;20031;-94
2023/08/30 08:31:53;;;;;;;6.25;4.18;;;19.60;70.40;;;;;;5058834;28;20036;-93
2023/08/30 08:34:19;;;;;;;4.28;3.55;;;19.70;69.60;;;;;;5067268;28;20089;-93
2023/08/30 08:36:45;;;;;;;4.90;3.45;;;19.80;68.90;;;;;;5068728;28;20032;-94
2023/08/30 08:39:11;;;;;;;5.03;3.78;;;19.80;68.40;;;;;;5064926;28;20121;-93
2023/08/30 08:41:44;;;;;;;3.95;3.55;;;19.80;68.30;;;;;;5068232;28;20511;-94
2023/08/30 08:44:11;;;;;;;4.03;3.17;;;19.90;68.00;;;;;;5068253;28;20063;-95
2023/08/30 08:46:39;;;;;;;3.95;3.55;;;19.90;68.20;;;;;;5067681;28;20024;-94
2023/08/30 08:49:11;;;;;;;4.03;3.65;;;20.00;68.30;;;;;;5067275;28;20357;-94
2023/08/30 08:51:38;;;;;;;6.32;3.75;;;20.00;67.80;;;;;;5067708;28;20058;-94
2023/08/30 08:54:05;;;;;;;3.63;3.33;;;20.10;68.30;;;;;;5068284;28;20120;-94
2023/08/30 08:56:34;;;;;;;3.80;3.28;;;20.20;68.30;;;;;;5063125;28;20761;-94
2023/08/30 08:59:01;;;;;;;3.88;3.00;;;20.30;68.00;;;;;;5071132;28;20031;-94
2023/08/30 09:01:27;;;;;;;4.78;3.35;;;20.40;67.90;;;;;;5073361;28;20044;-96
2023/08/30 09:03:53;;;;;;;2.97;2.67;;;20.60;67.70;;;;;;5079599;28;20024;-93
2023/08/30 09:06:20;;;;;;;4.68;3.17;;;20.70;67.40;;;;;;5075162;28;20456;-95
2023/08/30 09:08:46;;;;;;;4.72;3.13;;;20.80;66.60;;;;;;5079792;28;20052;-94
2023/08/30 09:11:12;;;;;;;3.03;2.72;;;20.90;65.90;;;;;;5072411;28;20032;-96
2023/08/30 09:13:37;;;;;;;3.72;2.65;;;21.00;65.90;;;;;;5076849;28;20095;-94
2023/08/30 09:16:12;;;;;;;4.90;3.20;;;21.10;65.80;;;;;;5077629;28;20032;-95
2023/08/30 09:18:38;;;;;;;3.13;2.33;;;21.30;64.20;;;;;;5077652;28;20706;-93
2023/08/30 09:21:11;;;;;;;3.38;2.40;;;21.40;65.00;;;;;;5081829;28;20103;-94
2023/08/30 09:23:37;;;;;;;3.45;2.35;;;21.50;63.40;;;;;;5073653;28;20531;-94
2023/08/30 09:26:04;;;;;;;5.20;2.30;;;21.60;64.00;;;;;;5079154;28;20032;-94
2023/08/30 09:28:31;;;;;;;6.00;2.80;;;21.80;63.80;;;;;;5093880;28;20119;-94
2023/08/30 09:31:03;;;;;;;5.80;2.50;;;21.80;63.00;;;;;;5076418;28;20112;-94
2023/08/30 09:33:33;;;;;;;3.05;2.35;;;22.00;62.30;;;;;;5079871;28;20067;-96
2023/08/30 09:35:59;;;;;;;2.50;2.25;;;22.10;61.60;;;;;;5094275;28;20024;-93
2023/08/30 09:38:25;;;;;;;4.40;2.78;;;22.20;62.20;;;;;;5090232;28;20036;-94
2023/08/30 09:40:51;;;;;;;3.85;2.38;;;22.30;61.50;;;;;;5087961;28;20048;-93
2023/08/30 09:43:21;;;;;;;2.85;2.30;;;22.20;61.60;;;;;;5085101;28;20029;-93
2023/08/30 09:45:48;;;;;;;19.42;2.83;;;22.30;61.10;;;;;;5086882;28;20028;-93
2023/08/30 09:48:14;;;;;;;2.78;2.33;;;22.50;60.80;;;;;;5089672;28;20085;-95
2023/08/30 09:50:45;;;;;;;3.38;2.03;;;22.60;61.00;;;;;;5092546;28;20386;-93
2023/08/30 09:53:13;;;;;;;4.05;2.00;;;22.70;60.80;;;;;;5089009;28;20108;-95
2023/08/30 09:55:40;;;;;;;2.53;2.20;;;22.80;60.80;;;;;;5091480;28;20047;-93
2023/08/30 09:58:06;;;;;;;2.33;2.08;;;23.00;60.20;;;;;;5093438;28;20028;-95
2023/08/30 10:00:36;;;;;;;3.00;2.25;;;23.10;59.20;;;;;;5088541;28;20135;-93
2023/08/30 10:03:02;;;;;;;2.22;2.03;;;23.20;58.90;;;;;;5083765;28;20032;-93
2023/08/30 10:05:29;;;;;;;2.80;1.70;;;23.20;57.90;;;;;;5084837;28;20133;-95
2023/08/30 10:07:56;;;;;;;2.25;1.88;;;23.20;56.70;;;;;;5084529;28;20044;-93
2023/08/30 10:10:23;;;;;;;6.18;1.73;;;23.20;57.30;;;;;;5081380;28;20367;-95
2023/08/30 10:12:50;;;;;;;2.53;2.05;;;23.20;57.20;;;;;;5081956;28;20036;-95
2023/08/30 10:15:16;;;;;;;2.75;1.95;;;23.20;56.50;;;;;;5090337;28;20032;-96
2023/08/30 10:17:45;;;;;;;2.15;1.95;;;23.20;56.50;;;;;;5090742;28;20032;-95
2023/08/30 10:20:12;;;;;;;5.40;2.30;;;23.20;56.60;;;;;;5084827;28;20461;-95
2023/08/30 10:22:39;;;;;;;2.42;1.52;;;23.10;56.70;;;;;;5087301;28;20494;-94
2023/08/30 10:25:16;;;;;;;2.10;1.40;;;23.10;56.90;;;;;;5078556;28;20518;-94
2023/08/30 10:27:48;;;;;;;3.58;1.80;;;23.20;55.90;;;;;;5080906;28;20540;-95
2023/08/30 10:30:16;;;;;;;1.95;1.77;;;23.20;56.60;;;;;;5099921;28;20036;-94
2023/08/30 10:32:44;;;;;;;2.17;1.90;;;23.20;56.90;;;;;;5087403;28;20071;-95
2023/08/30 10:35:18;;;;;;;2.78;1.65;;;23.20;55.50;;;;;;5091282;28;20471;-93
2023/08/30 10:38:04;;;;;;;;;;;23.20;55.40;;;;;;5090778;28;20063;-93
2023/08/30 10:40:29;;;;;;;1.60;1.50;;;23.30;56.40;;;;;;5088631;28;19912;-94
2023/08/30 10:43:04;;;;;;;1.70;1.45;;;23.20;55.80;;;;;;5085178;28;20387;-94
2023/08/30 10:45:30;;;;;;;1.98;1.50;;;23.10;55.50;;;;;;5082834;28;20029;-94
2023/08/30 10:47:58;;;;;;;2.65;2.05;;;23.10;56.20;;;;;;5087108;28;20449;-95
2023/08/30 10:50:32;;;;;;;2.50;1.95;;;23.10;55.80;;;;;;5086169;28;20035;-95
2023/08/30 10:52:58;;;;;;;2.60;2.08;;;23.10;55.30;;;;;;5081805;28;20089;-95
2023/08/30 10:55:24;;;;;;;2.05;1.88;;;23.00;56.00;;;;;;5089428;28;20032;-95
2023/08/30 10:58:06;;;;;;;2.90;1.95;;;23.00;56.30;;;;;;5083460;28;20464;-96
2023/08/30 11:00:33;;;;;;;3.47;2.30;;;23.00;55.40;;;;;;5082494;28;20126;-95
2023/08/30 11:02:59;;;;;;;5.47;1.95;;;23.00;55.90;;;;;;5081263;28;20024;-95
2023/08/30 11:05:26;;;;;;;2.95;2.40;;;23.00;56.20;;;;;;5087090;28;20032;-95
2023/08/30 11:07:52;;;;;;;3.00;2.17;;;23.00;56.60;;;;;;5089402;28;20053;-95
2023/08/30 11:10:19;;;;;;;2.20;1.73;;;23.00;56.20;;;;;;5085606;28;20020;-94
2023/08/30 11:12:46;;;;;;;2.45;2.10;;;23.10;56.60;;;;;;5088874;28;20024;-95
2023/08/30 11:15:16;;;;;;;2.85;2.13;;;23.10;55.90;;;;;;5087375;28;20062;-95
2023/08/30 11:17:43;;;;;;;3.05;2.38;;;23.10;55.80;;;;;;5084695;28;20145;-93
2023/08/30 11:20:12;;;;;;;2.78;2.03;;;23.10;55.40;;;;;;5087254;28;20475;-95
2023/08/30 11:22:43;;;;;;;2.65;2.20;;;23.10;55.40;;;;;;5092332;28;20039;-94
2023/08/30 11:25:10;;;;;;;3.22;2.05;;;22.90;55.20;;;;;;5085916;28;20031;-95
2023/08/30 11:27:38;;;;;;;3.15;1.92;;;22.80;55.80;;;;;;5086987;28;20035;-94
2023/08/30 11:30:05;;;;;;;3.20;2.08;;;22.70;55.90;;;;;;5085061;28;20032;-93
2023/08/30 11:32:42;;;;;;;19.75;2.47;;;22.60;56.50;;;;;;5092378;28;20032;-94
2023/08/30 11:35:08;;;;;;;3.88;2.40;;;22.40;56.40;;;;;;5104987;28;20030;-93
2023/08/30 11:37:35;;;;;;;6.53;2.60;;;22.30;56.20;;;;;;5096620;28;20076;-93
2023/08/30 11:40:05;;;;;;;5.13;2.45;;;22.10;57.10;;;;;;5111635;28;20747;-92
2023/08/30 11:42:32;;;;;;;3.42;2.42;;;21.90;58.10;;;;;;5095501;28;20114;-92
2023/08/30 11:45:02;;;;;;;5.97;2.33;;;21.70;58.50;;;;;;5089977;28;20077;-94
2023/08/30 11:47:29;;;;;;;5.47;2.60;;;21.50;59.20;;;;;;5098987;28;20047;-93
2023/08/30 11:49:59;;;;;;;3.63;2.60;;;21.30;59.50;;;;;;5095708;28;20108;-95
2023/08/30 11:52:26;;;;;;;6.05;3.00;;;21.20;60.80;;;;;;5094105;28;20028;-94
2023/08/30 11:54:52;;;;;;;7.05;2.60;;;21.00;61.50;;;;;;5096940;28;20044;-95
2023/08/30 11:57:18;;;;;;;4.93;2.38;;;20.90;61.80;;;;;;5093107;28;20028;-93
2023/08/30 11:59:44;;;;;;;2.85;2.38;;;20.90;62.50;;;;;;5096123;28;20046;-94
2023/08/30 12:02:12;;;;;;;3.92;2.63;;;20.80;62.80;;;;;;5096022;28;20035;-91
2023/08/30 12:04:42;;;;;;;4.28;2.70;;;20.80;63.50;;;;;;5095999;28;20011;-91
2023/08/30 12:07:08;;;;;;;4.82;3.22;;;20.80;64.40;;;;;;5103375;28;20024;-94
2023/08/30 12:09:34;;;;;;;7.88;3.45;;;20.80;64.10;;;;;;5094430;28;20024;-94
2023/08/30 12:12:12;;;;;;;5.35;3.38;;;20.80;63.90;;;;;;5093047;28;20023;-94
2023/08/30 12:14:38;;;;;;;3.47;2.75;;;20.90;64.40;;;;;;5103218;28;20031;-94
2023/08/30 12:17:05;;;;;;;3.25;2.70;;;20.90;63.20;;;;;;5106966;28;20042;-93
2023/08/30 12:19:32;;;;;;;5.20;2.13;;;20.90;62.80;;;;;;5103434;28;20027;-93
2023/08/30 12:22:04;;;;;;;2.13;1.80;;;20.80;62.70;;;;;;5098772;28;20027;-93
2023/08/30 12:24:44;;;;;;;2.35;1.75;;;20.70;62.40;;;;;;5102489;28;20107;-93
2023/08/30 12:27:10;;;;;;;1.83;1.73;;;20.70;62.50;;;;;;5090962;28;20032;-93
2023/08/30 12:29:36;;;;;;;2.13;1.63;;;20.60;62.60;;;;;;5099544;28;20110;-93
2023/08/30 12:32:02;;;;;;;2.08;1.65;;;20.50;62.90;;;;;;5095524;28;20023;-94
2023/08/30 12:34:28;;;;;;;3.10;2.13;;;20.40;62.70;;;;;;5088663;28;20040;-94
2023/08/30 12:36:55;;;;;;;2.03;1.90;;;20.50;63.10;;;;;;5089378;28;20039;-94
2023/08/30 12:39:23;;;;;;;2.55;2.25;;;20.40;63.30;;;;;;5092767;28;20361;-94
2023/08/30 12:41:49;;;;;;;4.82;2.40;;;20.40;64.00;;;;;;5093415;28;20040;-95
2023/08/30 12:44:15;;;;;;;3.15;2.10;;;20.40;64.00;;;;;;5097108;28;20032;-95
2023/08/30 12:46:41;;;;;;;6.65;2.38;;;20.40;64.00;;;;;;5090799;28;20024;-95
2023/08/30 12:49:07;;;;;;;4.88;2.55;;;20.40;63.90;;;;;;5086875;28;20052;-96